Time,TemperatureF,DewpointF,PressureIn,WindDirection,WindDirectionDegrees,WindSpeedMPH,WindSpeedGustMPH,Humidity,HourlyPrecipIn,Conditions,Clouds,dailyrainin,SoftwareType,DateUTC
2014-03-22 00:01:00,41.7,31.9,29.78,SE,132,3.0,9.0,68,0.00,,,0.00,WeatherCatV1.22B15,2014-03-22 04:01:00,
2014-03-22 00:02:00,41.8,32.0,29.78,SE,138,2.0,9.0,68,0.00,,,0.00,WeatherCatV1.22B15,2014-03-22 04:02:00,
2014-03-22 00:03:00,41.8,32.0,29.78,SSE,149,9.0,11.0,68,0.00,,,0.00,WeatherCatV1.22B15,2014-03-22 04:03:00,
2014-03-22 00:04:00,41.8,32.0,29.78,SE,127,3.0,11.0,68,0.00,,,0.00,WeatherCatV1.22B15,2014-03-22 04:04:00,
2014-03-22 00:06:00,41.8,32.0,29.78,East,92,2.0,5.0,68,0.00,,,0.00,WeatherCatV1.22B15,2014-03-22 04:06:00,
2014-03-22 00:11:00,42.0,32.2,29.77,SSE,160,0.0,11.0,68,0.00,,,0.00,WeatherCatV1.22B15,2014-03-22 04:11:00,
2014-03-22 00:14:00,42.1,32.3,29.76,SE,145,5.0,10.0,68,0.00,,,0.00,WeatherCatV1.22B15,2014-03-22 04:14:00,
2014-03-22 00:19:00,42.1,32.7,29.76,South,188,4.0,10.0,69,0.00,,,0.00,WeatherCatV1.22B15,2014-03-22 04:19:00,
2014-03-22 00:24:00,42.3,32.5,29.75,South,186,4.0,6.0,68,0.00,,,0.00,WeatherCatV1.22B15,2014-03-22 04:24:00,
2014-03-22 00:29:00,42.4,32.6,29.75,SE,128,7.0,11.0,68,0.00,,,0.00,WeatherCatV1.22B15,2014-03-22 04:29:00,
2014-03-22 00:34:00,42.4,32.6,29.74,SE,130,6.0,10.0,68,0.00,,,0.00,WeatherCatV1.22B15,2014-03-22 04:34:00,
2014-03-22 00:39:00,42.5,32.7,29.74,ESE,121,4.0,5.0,68,0.00,,,0.00,WeatherCatV1.22B15,2014-03-22 04:39:00,
2014-03-22 00:44:00,42.4,32.6,29.73,ESE,118,7.0,14.0,68,0.00,,,0.00,WeatherCatV1.22B15,2014-03-22 04:44:00,
2014-03-22 00:49:00,42.5,32.7,29.72,East,96,3.0,5.0,68,0.00,,,0.00,WeatherCatV1.22B15,2014-03-22 04:49:00,
2014-03-22 00:54:00,42.5,32.7,29.72,SE,131,5.0,9.0,68,0.00,,,0.00,WeatherCatV1.22B15,2014-03-22 04:54:00,
2014-03-22 00:59:00,42.6,32.8,29.72,SSE,149,0.0,7.0,68,0.00,,,0.00,WeatherCatV1.22B15,2014-03-22 04:59:00,
2014-03-22 01:04:00,42.6,32.8,29.72,SE,140,3.0,7.0,68,0.00,,,0.00,WeatherCatV1.22B15,2014-03-22 05:04:00,
2014-03-22 01:09:00,42.7,32.9,29.71,SE,130,2.0,5.0,68,0.00,,,0.00,WeatherCatV1.22B15,2014-03-22 05:09:00,
2014-03-22 01:14:00,42.8,33.0,29.72,ESE,105,2.0,2.0,68,0.00,,,0.00,WeatherCatV1.22B15,2014-03-22 05:14:00,
2014-03-22 01:19:00,43.1,33.3,29.70,SSE,153,1.0,12.0,68,0.00,,,0.00,WeatherCatV1.22B15,2014-03-22 05:19:00,
2014-03-22 01:24:00,43.2,33.4,29.72,SSW,195,0.0,6.0,68,0.00,,,0.00,WeatherCatV1.22B15,2014-03-22 05:24:00,
2014-03-22 01:29:00,43.3,33.1,29.71,SW,229,3.0,7.0,67,0.00,,,0.00,WeatherCatV1.22B15,2014-03-22 05:29:00,
2014-03-22 01:34:00,43.6,33.4,29.69,SE,133,6.0,7.0,67,0.00,,,0.00,WeatherCatV1.22B15,2014-03-22 05:34:00,
2014-03-22 01:39:00,43.7,33.5,29.70,SE,146,2.0,10.0,67,0.00,,,0.00,WeatherCatV1.22B15,2014-03-22 05:39:00,
2014-03-22 01:44:00,43.9,33.3,29.70,ESE,111,0.0,1.0,66,0.00,,,0.00,WeatherCatV1.22B15,2014-03-22 05:44:00,
2014-03-22 01:49:00,43.9,33.3,29.69,SSE,150,0.0,6.0,66,0.00,,,0.00,WeatherCatV1.22B15,2014-03-22 05:49:00,
2014-03-22 01:54:00,44.1,33.5,29.69,SE,128,10.0,10.0,66,0.00,,,0.00,WeatherCatV1.22B15,2014-03-22 05:54:00,
2014-03-22 01:59:00,44.5,33.5,29.70,South,184,2.0,6.0,65,0.00,,,0.00,WeatherCatV1.22B15,2014-03-22 05:59:00,
2014-03-22 02:04:00,44.6,33.6,29.69,ESE,116,3.0,15.0,65,0.00,,,0.00,WeatherCatV1.22B15,2014-03-22 06:04:00,
2014-03-22 02:09:00,44.5,33.5,29.69,SSW,212,10.0,10.0,65,0.00,,,0.00,WeatherCatV1.22B15,2014-03-22 06:09:00,
2014-03-22 02:14:00,44.5,33.5,29.68,ESE,113,4.0,9.0,65,0.00,,,0.00,WeatherCatV1.22B15,2014-03-22 06:14:00,
2014-03-22 02:19:00,44.6,33.6,29.68,ESE,111,4.0,6.0,65,0.00,,,0.00,WeatherCatV1.22B15,2014-03-22 06:19:00,
2014-03-22 02:24:00,44.8,33.8,29.68,SE,126,5.0,6.0,65,0.00,,,0.00,WeatherCatV1.22B15,2014-03-22 06:24:00,
2014-03-22 02:29:00,44.8,33.8,29.68,ESE,109,4.0,7.0,65,0.00,,,0.00,WeatherCatV1.22B15,2014-03-22 06:29:00,
2014-03-22 02:34:00,44.8,33.8,29.67,SW,226,4.0,5.0,65,0.00,,,0.00,WeatherCatV1.22B15,2014-03-22 06:34:00,
2014-03-22 02:39:00,45.0,34.0,29.67,WSW,248,0.0,7.0,65,0.00,,,0.00,WeatherCatV1.22B15,2014-03-22 06:39:00,
2014-03-22 02:44:00,44.8,33.8,29.66,SSE,150,10.0,12.0,65,0.00,,,0.00,WeatherCatV1.22B15,2014-03-22 06:44:00,
2014-03-22 02:49:00,44.9,33.9,29.66,SSE,161,0.0,10.0,65,0.00,,,0.00,WeatherCatV1.22B15,2014-03-22 06:49:00,
2014-03-22 02:54:00,44.9,33.9,29.65,SSW,192,2.0,8.0,65,0.00,,,0.00,WeatherCatV1.22B15,2014-03-22 06:54:00,
2014-03-22 02:59:00,44.9,33.9,29.65,SSW,210,0.0,4.0,65,0.00,,,0.00,WeatherCatV1.22B15,2014-03-22 06:59:00,
2014-03-22 03:04:00,44.5,33.9,29.65,NNE,32,5.0,10.0,66,0.00,,,0.00,WeatherCatV1.22B15,2014-03-22 07:04:00,
2014-03-22 03:09:00,44.5,33.9,29.64,SE,146,4.0,9.0,66,0.00,,,0.00,WeatherCatV1.22B15,2014-03-22 07:09:00,
2014-03-22 03:14:00,44.5,33.9,29.64,South,176,2.0,5.0,66,0.00,,,0.00,WeatherCatV1.22B15,2014-03-22 07:14:00,
2014-03-22 03:19:00,44.8,34.5,29.63,South,191,11.0,11.0,67,0.00,,,0.00,WeatherCatV1.22B15,2014-03-22 07:19:00,
2014-03-22 03:24:00,45.8,34.7,29.62,ESE,109,0.0,10.0,65,0.00,,,0.00,WeatherCatV1.22B15,2014-03-22 07:24:00,
2014-03-22 03:29:00,46.5,34.6,29.62,SSW,205,3.0,6.0,63,0.00,,,0.00,WeatherCatV1.22B15,2014-03-22 07:29:00,
2014-03-22 03:34:00,46.6,34.3,29.62,South,172,1.0,7.0,62,0.00,,,0.00,WeatherCatV1.22B15,2014-03-22 07:34:00,
2014-03-22 03:39:00,46.2,34.3,29.62,ESE,109,6.0,7.0,63,0.00,,,0.00,WeatherCatV1.22B15,2014-03-22 07:39:00,
2014-03-22 03:44:00,45.6,34.5,29.62,SSW,207,0.0,4.0,65,0.00,,,0.00,WeatherCatV1.22B15,2014-03-22 07:44:00,
2014-03-22 03:49:00,45.2,34.1,29.63,South,188,2.0,2.0,65,0.00,,,0.00,WeatherCatV1.22B15,2014-03-22 07:49:00,
2014-03-22 03:54:00,45.2,34.5,29.64,South,173,0.0,6.0,66,0.00,,,0.00,WeatherCatV1.22B15,2014-03-22 07:54:00,
2014-03-22 03:59:00,45.5,34.4,29.67,WSW,256,8.0,10.0,65,0.00,,,0.00,WeatherCatV1.22B15,2014-03-22 07:59:00,
2014-03-22 04:04:00,46.2,34.7,29.67,WSW,257,10.0,12.0,64,0.00,,,0.00,WeatherCatV1.22B15,2014-03-22 08:04:00,
2014-03-22 04:09:00,46.1,35.0,29.68,West,261,11.0,17.0,65,0.00,,,0.00,WeatherCatV1.22B15,2014-03-22 08:09:00,
2014-03-22 04:13:00,45.0,34.3,29.69,WSW,243,11.0,20.0,66,0.00,,,0.00,WeatherCatV1.22B15,2014-03-22 08:13:00,
2014-03-22 04:18:00,43.2,34.1,29.69,SW,219,6.0,9.0,70,0.00,,,0.00,WeatherCatV1.22B15,2014-03-22 08:18:00,
2014-03-22 04:23:00,42.6,34.2,29.69,SW,224,6.0,11.0,72,0.00,,,0.00,WeatherCatV1.22B15,2014-03-22 08:23:00,
2014-03-22 04:28:00,42.4,34.7,29.70,SW,236,5.0,15.0,74,0.00,,,0.00,WeatherCatV1.22B15,2014-03-22 08:28:00,
2014-03-22 04:34:00,41.9,35.9,29.70,WSW,248,7.0,12.0,79,0.00,,,0.00,WeatherCatV1.22B15,2014-03-22 08:34:00,
2014-03-22 04:39:00,41.6,34.6,29.70,SW,236,6.0,11.0,76,0.00,,,0.00,WeatherCatV1.22B15,2014-03-22 08:39:00,
2014-03-22 04:44:00,41.2,34.9,29.70,SSW,203,4.0,10.0,78,0.00,,,0.00,WeatherCatV1.22B15,2014-03-22 08:44:00,
2014-03-22 04:49:00,40.6,34.9,29.70,West,273,6.0,9.0,80,0.00,,,0.01,WeatherCatV1.22B15,2014-03-22 08:49:00,
2014-03-22 04:54:00,40.2,35.2,29.70,SW,226,6.0,11.0,82,0.00,,,0.01,WeatherCatV1.22B15,2014-03-22 08:54:00,
2014-03-22 05:00:00,40.1,35.4,29.70,WSW,246,2.0,6.0,83,0.06,,,0.02,WeatherCatV1.22B15,2014-03-22 09:00:00,
2014-03-22 05:05:00,40.1,35.7,29.70,WSW,237,1.0,4.0,84,0.06,,,0.02,WeatherCatV1.22B15,2014-03-22 09:05:00,
2014-03-22 05:10:00,40.1,36.0,29.70,WNW,284,1.0,6.0,85,0.04,,,0.02,WeatherCatV1.22B15,2014-03-22 09:10:00,
2014-03-22 05:15:00,40.1,36.0,29.71,WSW,238,2.0,4.0,85,0.00,,,0.02,WeatherCatV1.22B15,2014-03-22 09:15:00,
2014-03-22 05:20:00,40.2,36.1,29.71,SW,217,1.0,6.0,85,0.00,,,0.02,WeatherCatV1.22B15,2014-03-22 09:20:00,
2014-03-22 05:25:00,40.5,36.7,29.70,SW,225,2.0,5.0,86,0.00,,,0.03,WeatherCatV1.22B15,2014-03-22 09:25:00,
2014-03-22 05:30:00,40.8,36.9,29.70,WSW,241,0.0,3.0,86,0.00,,,0.03,WeatherCatV1.22B15,2014-03-22 09:30:00,
2014-03-22 05:35:00,41.0,37.4,29.71,WSW,240,3.0,4.0,87,0.00,,,0.03,WeatherCatV1.22B15,2014-03-22 09:35:00,
2014-03-22 05:40:00,41.0,37.4,29.71,SW,226,0.0,5.0,87,0.00,,,0.03,WeatherCatV1.22B15,2014-03-22 09:40:00,
2014-03-22 05:45:00,41.1,37.5,29.71,SW,224,1.0,4.0,87,0.00,,,0.03,WeatherCatV1.22B15,2014-03-22 09:45:00,
2014-03-22 05:50:00,41.2,37.6,29.71,SW,234,1.0,5.0,87,0.00,,,0.03,WeatherCatV1.22B15,2014-03-22 09:50:00,
2014-03-22 05:55:00,41.4,37.8,29.71,SW,236,1.0,5.0,87,0.00,,,0.03,WeatherCatV1.22B15,2014-03-22 09:55:00,
2014-03-22 06:00:00,41.4,37.8,29.72,WSW,240,0.0,4.0,87,0.00,,,0.03,WeatherCatV1.22B15,2014-03-22 10:00:00,
2014-03-22 06:05:00,41.5,37.9,29.72,WSW,240,1.0,4.0,87,0.00,,,0.03,WeatherCatV1.22B15,2014-03-22 10:05:00,
2014-03-22 06:10:00,41.5,37.9,29.72,SSW,198,3.0,5.0,87,0.00,,,0.03,WeatherCatV1.22B15,2014-03-22 10:10:00,
2014-03-22 06:15:00,41.6,38.0,29.73,SW,228,2.0,9.0,87,0.00,,,0.03,WeatherCatV1.22B15,2014-03-22 10:15:00,
2014-03-22 06:20:00,41.9,38.3,29.73,West,262,5.0,9.0,87,0.00,,,0.03,WeatherCatV1.22B15,2014-03-22 10:20:00,
2014-03-22 06:25:00,42.1,38.2,29.73,SW,218,3.0,6.0,86,0.00,,,0.03,WeatherCatV1.22B15,2014-03-22 10:25:00,
2014-03-22 06:30:00,42.4,38.5,29.74,WSW,242,3.0,7.0,86,0.00,,,0.03,WeatherCatV1.22B15,2014-03-22 10:30:00,
2014-03-22 06:35:00,42.8,38.9,29.74,WSW,257,9.0,9.0,86,0.00,,,0.03,WeatherCatV1.22B15,2014-03-22 10:35:00,
2014-03-22 06:40:00,43.3,39.1,29.75,WSW,252,5.0,9.0,85,0.00,,,0.03,WeatherCatV1.22B15,2014-03-22 10:40:00,
2014-03-22 06:45:00,43.5,40.2,29.75,West,275,13.0,14.0,88,0.00,,,0.03,WeatherCatV1.22B15,2014-03-22 10:45:00,
2014-03-22 06:50:00,43.3,38.2,29.76,WNW,282,12.0,14.0,82,0.00,,,0.03,WeatherCatV1.22B15,2014-03-22 10:50:00,
2014-03-22 06:55:00,43.0,37.9,29.76,SW,235,6.0,11.0,82,0.00,,,0.03,WeatherCatV1.22B15,2014-03-22 10:55:00,
2014-03-22 07:00:00,42.8,37.7,29.77,West,263,18.0,18.0,82,0.00,,,0.03,WeatherCatV1.22B15,2014-03-22 11:00:00,
2014-03-22 07:05:00,42.2,36.8,29.78,West,267,9.0,19.0,81,0.00,,,0.03,WeatherCatV1.22B15,2014-03-22 11:05:00,
2014-03-22 07:10:00,41.3,36.2,29.79,SSW,204,7.0,13.0,82,0.00,,,0.03,WeatherCatV1.22B15,2014-03-22 11:10:00,
2014-03-22 07:15:00,40.5,35.5,29.80,SW,230,15.0,15.0,82,0.00,,,0.03,WeatherCatV1.22B15,2014-03-22 11:15:00,
2014-03-22 07:20:00,39.8,35.1,29.81,SW,225,4.0,10.0,83,0.00,,,0.03,WeatherCatV1.22B15,2014-03-22 11:20:00,
2014-03-22 07:25:00,39.5,35.1,29.81,SW,221,5.0,11.0,84,0.00,,,0.03,WeatherCatV1.22B15,2014-03-22 11:25:00,
2014-03-22 07:30:00,39.2,34.8,29.82,WSW,242,9.0,12.0,84,0.00,,,0.03,WeatherCatV1.22B15,2014-03-22 11:30:00,
2014-03-22 07:35:00,38.7,34.3,29.83,West,271,5.0,14.0,84,0.00,,,0.03,WeatherCatV1.22B15,2014-03-22 11:35:00,
2014-03-22 07:40:00,38.4,34.3,29.84,SSW,200,7.0,11.0,85,0.00,,,0.03,WeatherCatV1.22B15,2014-03-22 11:40:00,
2014-03-22 07:46:00,38.3,34.2,29.84,West,260,7.0,11.0,85,0.00,,,0.03,WeatherCatV1.22B15,2014-03-22 11:46:00,
2014-03-22 07:51:00,38.1,34.0,29.85,West,266,5.0,5.0,85,0.00,,,0.03,WeatherCatV1.22B15,2014-03-22 11:51:00,
2014-03-22 07:56:00,38.0,33.9,29.86,SW,236,11.0,13.0,85,0.00,,,0.03,WeatherCatV1.22B15,2014-03-22 11:56:00,
2014-03-22 08:01:00,37.8,33.7,29.86,WSW,254,6.0,11.0,85,0.00,,,0.03,WeatherCatV1.22B15,2014-03-22 12:01:00,
2014-03-22 08:06:00,37.6,33.8,29.87,SSW,202,6.0,7.0,86,0.00,,,0.03,WeatherCatV1.22B15,2014-03-22 12:06:00,
2014-03-22 08:11:00,37.5,33.7,29.88,West,263,4.0,7.0,86,0.00,,,0.03,WeatherCatV1.22B15,2014-03-22 12:11:00,
2014-03-22 08:16:00,37.3,33.5,29.88,WSW,254,4.0,9.0,86,0.00,,,0.03,WeatherCatV1.22B15,2014-03-22 12:16:00,
2014-03-22 08:21:00,37.1,33.3,29.88,WNW,294,2.0,9.0,86,0.00,,,0.03,WeatherCatV1.22B15,2014-03-22 12:21:00,
2014-03-22 08:26:00,37.0,33.2,29.89,SSW,211,4.0,7.0,86,0.00,,,0.03,WeatherCatV1.22B15,2014-03-22 12:26:00,
2014-03-22 08:31:00,37.0,33.2,29.89,SW,225,5.0,5.0,86,0.00,,,0.03,WeatherCatV1.22B15,2014-03-22 12:31:00,
2014-03-22 08:36:00,36.9,33.1,29.89,West,259,3.0,5.0,86,0.00,,,0.03,WeatherCatV1.22B15,2014-03-22 12:36:00,
2014-03-22 08:41:00,36.9,33.4,29.90,WSW,246,3.0,4.0,87,0.00,,,0.03,WeatherCatV1.22B15,2014-03-22 12:41:00,
2014-03-22 08:46:00,36.9,33.4,29.90,WSW,240,2.0,4.0,87,0.00,,,0.03,WeatherCatV1.22B15,2014-03-22 12:46:00,
2014-03-22 08:51:00,36.9,33.1,29.91,WSW,250,2.0,6.0,86,0.00,,,0.03,WeatherCatV1.22B15,2014-03-22 12:51:00,
2014-03-22 08:56:00,36.9,33.1,29.91,West,261,3.0,6.0,86,0.00,,,0.03,WeatherCatV1.22B15,2014-03-22 12:56:00,
2014-03-22 09:01:00,36.8,33.0,29.91,West,264,5.0,6.0,86,0.00,,,0.03,WeatherCatV1.22B15,2014-03-22 13:01:00,
2014-03-22 09:06:00,36.8,33.0,29.91,WSW,257,0.0,1.0,86,0.00,,,0.03,WeatherCatV1.22B15,2014-03-22 13:06:00,
2014-03-22 09:11:00,36.8,32.7,29.92,West,259,3.0,5.0,85,0.00,,,0.03,WeatherCatV1.22B15,2014-03-22 13:11:00,
2014-03-22 09:16:00,36.8,32.7,29.93,West,271,3.0,4.0,85,0.00,,,0.03,WeatherCatV1.22B15,2014-03-22 13:16:00,
2014-03-22 09:21:00,36.8,32.7,29.93,WSW,254,3.0,10.0,85,0.00,,,0.03,WeatherCatV1.22B15,2014-03-22 13:21:00,
2014-03-22 09:26:00,36.7,32.6,29.93,West,263,4.0,7.0,85,0.00,,,0.03,WeatherCatV1.22B15,2014-03-22 13:26:00,
2014-03-22 09:31:00,36.7,32.6,29.94,WSW,254,2.0,6.0,85,0.00,,,0.03,WeatherCatV1.22B15,2014-03-22 13:31:00,
2014-03-22 09:36:00,36.7,32.3,29.94,West,279,2.0,4.0,84,0.00,,,0.03,WeatherCatV1.22B15,2014-03-22 13:36:00,
2014-03-22 09:41:00,36.6,32.2,29.95,WNW,290,5.0,7.0,84,0.00,,,0.03,WeatherCatV1.22B15,2014-03-22 13:41:00,
2014-03-22 09:46:00,36.5,32.1,29.96,WSW,252,0.0,3.0,84,0.00,,,0.03,WeatherCatV1.22B15,2014-03-22 13:46:00,
2014-03-22 09:51:00,36.5,32.1,29.96,West,269,3.0,7.0,84,0.00,,,0.03,WeatherCatV1.22B15,2014-03-22 13:51:00,
2014-03-22 09:56:00,36.3,32.2,29.96,West,268,0.0,0.0,85,0.00,,,0.03,WeatherCatV1.22B15,2014-03-22 13:56:00,
2014-03-22 10:01:00,36.4,32.3,29.97,West,273,1.0,6.0,85,0.00,,,0.03,WeatherCatV1.22B15,2014-03-22 14:01:00,
2014-03-22 10:06:00,36.3,32.2,29.97,SW,228,4.0,5.0,85,0.00,,,0.03,WeatherCatV1.22B15,2014-03-22 14:06:00,
2014-03-22 10:11:00,36.3,31.9,29.98,West,261,1.0,3.0,84,0.00,,,0.03,WeatherCatV1.22B15,2014-03-22 14:11:00,
2014-03-22 10:16:00,36.3,31.9,29.98,WSW,252,4.0,4.0,84,0.00,,,0.03,WeatherCatV1.22B15,2014-03-22 14:16:00,
2014-03-22 10:21:00,36.2,31.8,29.98,SW,229,4.0,6.0,84,0.00,,,0.03,WeatherCatV1.22B15,2014-03-22 14:21:00,
2014-03-22 10:26:00,36.2,31.5,29.98,SW,235,2.0,7.0,83,0.00,,,0.03,WeatherCatV1.22B15,2014-03-22 14:26:00,
2014-03-22 10:31:00,36.2,31.5,29.99,SW,221,5.0,5.0,83,0.00,,,0.03,WeatherCatV1.22B15,2014-03-22 14:31:00,
2014-03-22 10:36:00,36.2,31.5,29.99,WSW,250,2.0,6.0,83,0.00,,,0.03,WeatherCatV1.22B15,2014-03-22 14:36:00,
2014-03-22 10:41:00,36.2,31.2,30.00,West,268,5.0,5.0,82,0.00,,,0.03,WeatherCatV1.22B15,2014-03-22 14:41:00,
2014-03-22 10:46:00,36.1,31.1,30.01,West,268,2.0,6.0,82,0.00,,,0.03,WeatherCatV1.22B15,2014-03-22 14:46:00,
2014-03-22 10:51:00,36.1,31.1,30.01,West,261,2.0,4.0,82,0.00,,,0.03,WeatherCatV1.22B15,2014-03-22 14:51:00,
2014-03-22 10:56:00,36.0,30.8,30.01,West,277,2.0,6.0,81,0.00,,,0.03,WeatherCatV1.22B15,2014-03-22 14:56:00,
2014-03-22 11:01:00,36.0,30.8,30.01,West,267,3.0,10.0,81,0.00,,,0.03,WeatherCatV1.22B15,2014-03-22 15:01:00,
2014-03-22 11:06:00,36.1,30.8,30.01,WNW,294,3.0,6.0,81,0.00,,,0.03,WeatherCatV1.22B15,2014-03-22 15:06:00,
2014-03-22 11:11:00,36.2,30.9,30.02,West,272,4.0,6.0,81,0.00,,,0.03,WeatherCatV1.22B15,2014-03-22 15:11:00,
2014-03-22 11:16:00,36.2,30.6,30.02,WSW,249,3.0,4.0,80,0.00,,,0.03,WeatherCatV1.22B15,2014-03-22 15:16:00,
2014-03-22 11:21:00,36.2,30.6,30.02,West,265,4.0,4.0,80,0.00,,,0.03,WeatherCatV1.22B15,2014-03-22 15:21:00,
2014-03-22 11:26:00,36.3,30.7,30.02,West,259,3.0,4.0,80,0.00,,,0.03,WeatherCatV1.22B15,2014-03-22 15:26:00,
2014-03-22 11:31:00,36.3,30.4,30.02,WNW,299,2.0,10.0,79,0.00,,,0.03,WeatherCatV1.22B15,2014-03-22 15:31:00,
2014-03-22 11:36:00,36.3,30.4,30.03,West,273,1.0,3.0,79,0.00,,,0.03,WeatherCatV1.22B15,2014-03-22 15:36:00,
2014-03-22 11:41:00,36.4,30.5,30.02,West,265,0.0,2.0,79,0.00,,,0.03,WeatherCatV1.22B15,2014-03-22 15:41:00,
2014-03-22 11:46:00,36.5,30.6,30.03,WSW,242,3.0,5.0,79,0.00,,,0.03,WeatherCatV1.22B15,2014-03-22 15:46:00,
2014-03-22 11:51:00,36.5,30.6,30.03,West,261,1.0,1.0,79,0.00,,,0.03,WeatherCatV1.22B15,2014-03-22 15:51:00,
2014-03-22 11:52:00,36.5,30.6,30.03,WNW,295,1.0,3.0,79,0.00,,,0.03,WeatherCatV1.22B15,2014-03-22 15:52:00,
2014-03-22 11:57:00,36.6,30.7,30.03,West,259,3.0,6.0,79,0.00,,,0.03,WeatherCatV1.22B15,2014-03-22 15:57:00,
2014-03-22 12:02:00,36.5,30.6,30.04,West,265,1.0,5.0,79,0.00,,,0.03,WeatherCatV1.22B15,2014-03-22 16:02:00,
2014-03-22 12:07:00,36.6,30.7,30.04,West,267,3.0,9.0,79,0.00,,,0.03,WeatherCatV1.22B15,2014-03-22 16:07:00,
2014-03-22 12:12:00,36.6,30.7,30.04,WSW,256,3.0,5.0,79,0.00,,,0.03,WeatherCatV1.22B15,2014-03-22 16:12:00,
2014-03-22 12:17:00,36.6,31.0,30.04,WSW,240,5.0,7.0,80,0.00,,,0.03,WeatherCatV1.22B15,2014-03-22 16:17:00,
2014-03-22 12:22:00,36.9,31.6,30.04,WSW,249,5.0,5.0,81,0.00,,,0.03,WeatherCatV1.22B15,2014-03-22 16:22:00,
2014-03-22 12:27:00,36.9,31.3,30.04,WSW,242,3.0,5.0,80,0.00,,,0.03,WeatherCatV1.22B15,2014-03-22 16:27:00,
2014-03-22 12:32:00,36.7,30.8,30.04,WSW,250,3.0,6.0,79,0.00,,,0.03,WeatherCatV1.22B15,2014-03-22 16:32:00,
2014-03-22 12:37:00,36.9,31.3,30.04,West,262,4.0,5.0,80,0.00,,,0.03,WeatherCatV1.22B15,2014-03-22 16:37:00,
2014-03-22 12:42:00,36.9,31.0,30.05,WSW,238,3.0,9.0,79,0.00,,,0.03,WeatherCatV1.22B15,2014-03-22 16:42:00,
2014-03-22 12:47:00,37.1,31.2,30.05,WNW,284,3.0,6.0,79,0.00,,,0.03,WeatherCatV1.22B15,2014-03-22 16:47:00,
2014-03-22 12:52:00,37.1,30.9,30.05,West,264,2.0,6.0,78,0.00,,,0.03,WeatherCatV1.22B15,2014-03-22 16:52:00,
2014-03-22 12:57:00,37.2,31.0,30.06,WNW,282,1.0,3.0,78,0.00,,,0.03,WeatherCatV1.22B15,2014-03-22 16:57:00,
2014-03-22 13:02:00,36.8,30.6,30.06,West,261,3.0,10.0,78,0.00,,,0.03,WeatherCatV1.22B15,2014-03-22 17:02:00,
2014-03-22 13:07:00,36.9,31.0,30.06,WSW,246,3.0,4.0,79,0.00,,,0.03,WeatherCatV1.22B15,2014-03-22 17:07:00,
2014-03-22 13:12:00,37.0,31.1,30.06,WNW,292,6.0,7.0,79,0.00,,,0.03,WeatherCatV1.22B15,2014-03-22 17:12:00,
2014-03-22 13:17:00,36.9,31.0,30.07,NW,309,4.0,7.0,79,0.00,,,0.03,WeatherCatV1.22B15,2014-03-22 17:17:00,
2014-03-22 13:22:00,36.8,30.9,30.07,West,267,4.0,5.0,79,0.00,,,0.03,WeatherCatV1.22B15,2014-03-22 17:22:00,
2014-03-22 13:27:00,36.6,30.7,30.07,West,263,4.0,5.0,79,0.00,,,0.03,WeatherCatV1.22B15,2014-03-22 17:27:00,
2014-03-22 13:32:00,36.5,30.6,30.07,SW,215,4.0,9.0,79,0.00,,,0.03,WeatherCatV1.22B15,2014-03-22 17:32:00,
2014-03-22 13:37:00,36.5,30.6,30.07,WSW,248,4.0,8.0,79,0.00,,,0.03,WeatherCatV1.22B15,2014-03-22 17:37:00,
2014-03-22 13:42:00,36.3,30.4,30.08,WSW,242,3.0,7.0,79,0.00,,,0.03,WeatherCatV1.22B15,2014-03-22 17:42:00,
2014-03-22 13:47:00,36.3,30.4,30.08,WSW,241,4.0,9.0,79,0.00,,,0.03,WeatherCatV1.22B15,2014-03-22 17:47:00,
2014-03-22 13:52:00,36.6,30.7,30.08,SSW,212,3.0,5.0,79,0.00,,,0.03,WeatherCatV1.22B15,2014-03-22 17:52:00,
2014-03-22 13:57:00,36.4,30.2,30.08,SW,234,5.0,5.0,78,0.00,,,0.03,WeatherCatV1.22B15,2014-03-22 17:57:00,
2014-03-22 14:02:00,36.4,30.5,30.08,West,263,3.0,5.0,79,0.00,,,0.03,WeatherCatV1.22B15,2014-03-22 18:02:00,
2014-03-22 14:07:00,36.3,30.4,30.08,SW,221,2.0,4.0,79,0.00,,,0.03,WeatherCatV1.22B15,2014-03-22 18:07:00,
2014-03-22 14:12:00,36.3,30.4,30.08,WSW,240,5.0,9.0,79,0.00,,,0.03,WeatherCatV1.22B15,2014-03-22 18:12:00,
2014-03-22 14:17:00,36.1,30.2,30.08,SW,214,5.0,6.0,79,0.00,,,0.03,WeatherCatV1.22B15,2014-03-22 18:17:00,
2014-03-22 14:22:00,35.9,30.3,30.08,West,265,1.0,7.0,80,0.00,,,0.03,WeatherCatV1.22B15,2014-03-22 18:22:00,
2014-03-22 14:27:00,36.0,30.4,30.08,WNW,292,0.0,4.0,80,0.00,,,0.03,WeatherCatV1.22B15,2014-03-22 18:27:00,
2014-03-22 14:32:00,36.2,30.3,30.08,West,263,1.0,6.0,79,0.00,,,0.03,WeatherCatV1.22B15,2014-03-22 18:32:00,
2014-03-22 14:37:00,36.2,30.0,30.08,WSW,242,4.0,6.0,78,0.00,,,0.03,WeatherCatV1.22B15,2014-03-22 18:37:00,
2014-03-22 14:42:00,36.4,30.2,30.08,West,260,6.0,6.0,78,0.00,,,0.03,WeatherCatV1.22B15,2014-03-22 18:42:00,
2014-03-22 14:47:00,36.5,30.3,30.08,WSW,243,3.0,5.0,78,0.00,,,0.03,WeatherCatV1.22B15,2014-03-22 18:47:00,
2014-03-22 14:52:00,36.5,30.6,30.08,West,278,3.0,4.0,79,0.00,,,0.03,WeatherCatV1.22B15,2014-03-22 18:52:00,
2014-03-22 14:57:00,36.7,30.8,30.08,SSW,213,5.0,7.0,79,0.00,,,0.03,WeatherCatV1.22B15,2014-03-22 18:57:00,
2014-03-22 15:02:00,36.6,30.1,30.08,WSW,257,0.0,6.0,77,0.00,,,0.03,WeatherCatV1.22B15,2014-03-22 19:02:00,
2014-03-22 15:07:00,36.4,29.9,30.08,WNW,300,3.0,5.0,77,0.00,,,0.03,WeatherCatV1.22B15,2014-03-22 19:07:00,
2014-03-22 15:12:00,36.3,29.5,30.08,WSW,256,0.0,4.0,76,0.00,,,0.03,WeatherCatV1.22B15,2014-03-22 19:12:00,
2014-03-22 15:17:00,36.4,29.6,30.08,WSW,238,7.0,7.0,76,0.00,,,0.03,WeatherCatV1.22B15,2014-03-22 19:17:00,
2014-03-22 15:22:00,36.3,29.1,30.08,WSW,254,3.0,6.0,75,0.00,,,0.03,WeatherCatV1.22B15,2014-03-22 19:22:00,
2014-03-22 15:27:00,36.1,29.0,30.08,West,270,3.0,5.0,75,0.00,,,0.03,WeatherCatV1.22B15,2014-03-22 19:27:00,
2014-03-22 15:32:00,36.1,29.3,30.09,SW,225,5.0,5.0,76,0.00,,,0.03,WeatherCatV1.22B15,2014-03-22 19:32:00,
2014-03-22 15:37:00,36.1,29.3,30.09,SW,232,2.0,3.0,76,0.00,,,0.03,WeatherCatV1.22B15,2014-03-22 19:37:00,
2014-03-22 15:43:00,36.4,29.6,30.09,WSW,241,1.0,4.0,76,0.00,,,0.03,WeatherCatV1.22B15,2014-03-22 19:43:00,
2014-03-22 15:48:00,36.1,29.0,30.09,WSW,248,0.0,2.0,75,0.00,,,0.03,WeatherCatV1.22B15,2014-03-22 19:48:00,
2014-03-22 15:53:00,36.1,29.0,30.09,WSW,255,4.0,6.0,75,0.00,,,0.03,WeatherCatV1.22B15,2014-03-22 19:53:00,
2014-03-22 15:58:00,36.0,28.9,30.10,West,268,5.0,6.0,75,0.00,,,0.03,WeatherCatV1.22B15,2014-03-22 19:58:00,
2014-03-22 16:03:00,36.0,28.9,30.10,WSW,252,5.0,5.0,75,0.00,,,0.03,WeatherCatV1.22B15,2014-03-22 20:03:00,
2014-03-22 16:08:00,35.8,28.7,30.10,WSW,243,3.0,5.0,75,0.00,,,0.03,WeatherCatV1.22B15,2014-03-22 20:08:00,
2014-03-22 16:13:00,35.9,28.8,30.10,WSW,246,0.0,5.0,75,0.00,,,0.03,WeatherCatV1.22B15,2014-03-22 20:13:00,
2014-03-22 16:18:00,35.9,29.1,30.10,WNW,283,0.0,4.0,76,0.00,,,0.03,WeatherCatV1.22B15,2014-03-22 20:18:00,
2014-03-22 16:23:00,35.9,28.8,30.10,SW,230,0.0,4.0,75,0.00,,,0.03,WeatherCatV1.22B15,2014-03-22 20:23:00,
2014-03-22 16:28:00,35.9,28.8,30.10,SW,223,0.0,3.0,75,0.00,,,0.03,WeatherCatV1.22B15,2014-03-22 20:28:00,
2014-03-22 16:33:00,35.9,28.8,30.10,WSW,240,1.0,4.0,75,0.00,,,0.03,WeatherCatV1.22B15,2014-03-22 20:33:00,
2014-03-22 16:38:00,36.0,28.9,30.11,WSW,252,0.0,2.0,75,0.00,,,0.03,WeatherCatV1.22B15,2014-03-22 20:38:00,
2014-03-22 16:43:00,35.9,28.8,30.10,WSW,250,3.0,3.0,75,0.00,,,0.03,WeatherCatV1.22B15,2014-03-22 20:43:00,
2014-03-22 16:48:00,36.0,28.9,30.10,SW,228,0.0,1.0,75,0.00,,,0.03,WeatherCatV1.22B15,2014-03-22 20:48:00,
2014-03-22 16:53:00,36.1,29.0,30.10,SSW,205,0.0,0.0,75,0.00,,,0.03,WeatherCatV1.22B15,2014-03-22 20:53:00,
2014-03-22 16:59:00,36.1,29.0,30.10,SSW,211,3.0,4.0,75,0.00,,,0.03,WeatherCatV1.22B15,2014-03-22 20:59:00,
2014-03-22 17:04:00,36.3,29.1,30.10,SW,220,0.0,4.0,75,0.00,,,0.03,WeatherCatV1.22B15,2014-03-22 21:04:00,
2014-03-22 17:09:00,36.3,28.8,30.10,WSW,241,0.0,4.0,74,0.00,,,0.03,WeatherCatV1.22B15,2014-03-22 21:09:00,
2014-03-22 17:14:00,36.4,28.9,30.10,SW,232,3.0,4.0,74,0.00,,,0.03,WeatherCatV1.22B15,2014-03-22 21:14:00,
2014-03-22 17:19:00,36.5,29.0,30.10,WSW,248,0.0,5.0,74,0.00,,,0.03,WeatherCatV1.22B15,2014-03-22 21:19:00,
2014-03-22 17:24:00,36.5,29.0,30.10,SW,221,3.0,4.0,74,0.00,,,0.03,WeatherCatV1.22B15,2014-03-22 21:24:00,
2014-03-22 17:29:00,36.6,29.1,30.10,West,267,1.0,4.0,74,0.00,,,0.03,WeatherCatV1.22B15,2014-03-22 21:29:00,
2014-03-22 17:34:00,36.7,28.9,30.10,West,261,0.0,1.0,73,0.00,,,0.03,WeatherCatV1.22B15,2014-03-22 21:34:00,
2014-03-22 17:39:00,36.6,28.8,30.10,SW,215,3.0,4.0,73,0.00,,,0.03,WeatherCatV1.22B15,2014-03-22 21:39:00,
2014-03-22 17:44:00,36.5,28.7,30.11,WSW,254,4.0,6.0,73,0.00,,,0.03,WeatherCatV1.22B15,2014-03-22 21:44:00,
2014-03-22 17:49:00,36.6,29.1,30.10,SW,232,1.0,3.0,74,0.00,,,0.03,WeatherCatV1.22B15,2014-03-22 21:49:00,
2014-03-22 17:54:00,36.7,28.9,30.10,SW,221,3.0,5.0,73,0.00,,,0.03,WeatherCatV1.22B15,2014-03-22 21:54:00,
2014-03-22 17:59:00,36.7,29.2,30.11,West,269,0.0,1.0,74,0.00,,,0.03,WeatherCatV1.22B15,2014-03-22 21:59:00,
2014-03-22 18:04:00,36.8,29.3,30.10,WSW,239,0.0,3.0,74,0.00,,,0.03,WeatherCatV1.22B15,2014-03-22 22:04:00,
2014-03-22 18:09:00,36.8,29.3,30.10,SSW,209,3.0,4.0,74,0.00,,,0.03,WeatherCatV1.22B15,2014-03-22 22:09:00,
2014-03-22 18:14:00,36.8,29.0,30.10,WSW,242,0.0,3.0,73,0.00,,,0.03,WeatherCatV1.22B15,2014-03-22 22:14:00,
2014-03-22 18:19:00,36.9,29.1,30.11,SW,232,2.0,4.0,73,0.00,,,0.03,WeatherCatV1.22B15,2014-03-22 22:19:00,
2014-03-22 18:24:00,37.0,29.2,30.11,WSW,239,0.0,2.0,73,0.00,,,0.03,WeatherCatV1.22B15,2014-03-22 22:24:00,
2014-03-22 18:29:00,37.1,29.3,30.11,WSW,241,0.0,0.0,73,0.00,,,0.03,WeatherCatV1.22B15,2014-03-22 22:29:00,
2014-03-22 18:34:00,37.1,29.3,30.11,WSW,241,0.0,1.0,73,0.00,,,0.03,WeatherCatV1.22B15,2014-03-22 22:34:00,
2014-03-22 18:39:00,37.1,29.3,30.11,WSW,247,0.0,4.0,73,0.00,,,0.03,WeatherCatV1.22B15,2014-03-22 22:39:00,
2014-03-22 18:44:00,37.1,29.3,30.11,WSW,252,0.0,0.0,73,0.00,,,0.03,WeatherCatV1.22B15,2014-03-22 22:44:00,
2014-03-22 18:49:00,37.0,29.2,30.11,West,259,2.0,2.0,73,0.00,,,0.03,WeatherCatV1.22B15,2014-03-22 22:49:00,
2014-03-22 18:54:00,37.0,29.2,30.11,SW,229,1.0,4.0,73,0.00,,,0.03,WeatherCatV1.22B15,2014-03-22 22:54:00,
2014-03-22 18:59:00,37.0,29.2,30.12,West,263,0.0,3.0,73,0.00,,,0.03,WeatherCatV1.22B15,2014-03-22 22:59:00,
2014-03-22 19:04:00,37.0,29.2,30.12,West,268,0.0,4.0,73,0.00,,,0.03,WeatherCatV1.22B15,2014-03-22 23:04:00,
2014-03-22 19:09:00,37.0,29.2,30.12,WSW,241,0.0,0.0,73,0.00,,,0.03,WeatherCatV1.22B15,2014-03-22 23:09:00,
2014-03-22 19:14:00,37.0,29.2,30.12,SW,234,0.0,0.0,73,0.00,,,0.03,WeatherCatV1.22B15,2014-03-22 23:14:00,
2014-03-22 19:19:00,37.0,29.2,30.12,SW,234,0.0,0.0,73,0.00,,,0.03,WeatherCatV1.22B15,2014-03-22 23:19:00,
2014-03-22 19:24:00,37.0,29.2,30.12,WSW,245,1.0,3.0,73,0.00,,,0.03,WeatherCatV1.22B15,2014-03-22 23:24:00,
2014-03-22 19:29:00,37.0,28.8,30.12,SW,232,0.0,2.0,72,0.00,,,0.03,WeatherCatV1.22B15,2014-03-22 23:29:00,
2014-03-22 19:34:00,37.0,28.8,30.12,SW,236,0.0,0.0,72,0.00,,,0.03,WeatherCatV1.22B15,2014-03-22 23:34:00,
2014-03-22 19:39:00,37.0,28.8,30.12,SSW,209,2.0,2.0,72,0.00,,,0.03,WeatherCatV1.22B15,2014-03-22 23:39:00,
2014-03-22 19:44:00,37.0,29.2,30.12,SSW,213,0.0,0.0,73,0.00,,,0.03,WeatherCatV1.22B15,2014-03-22 23:44:00,
2014-03-22 19:49:00,36.9,29.1,30.12,SSW,213,0.0,0.0,73,0.00,,,0.03,WeatherCatV1.22B15,2014-03-22 23:49:00,
2014-03-22 19:54:00,36.9,29.1,30.12,WSW,257,2.0,6.0,73,0.00,,,0.03,WeatherCatV1.22B15,2014-03-22 23:54:00,
2014-03-22 19:59:00,36.9,29.1,30.12,WSW,238,3.0,4.0,73,0.00,,,0.03,WeatherCatV1.22B15,2014-03-22 23:59:00,
2014-03-22 20:04:00,36.9,28.7,30.12,SW,227,0.0,3.0,72,0.00,,,0.03,WeatherCatV1.22B15,2014-03-23 00:04:00,
2014-03-22 20:09:00,36.8,29.0,30.12,SW,227,2.0,2.0,73,0.00,,,0.03,WeatherCatV1.22B15,2014-03-23 00:09:00,
2014-03-22 20:14:00,36.8,28.6,30.12,SW,221,2.0,4.0,72,0.00,,,0.03,WeatherCatV1.22B15,2014-03-23 00:14:00,
2014-03-22 20:19:00,36.8,28.6,30.13,SW,234,0.0,0.0,72,0.00,,,0.03,WeatherCatV1.22B15,2014-03-23 00:19:00,
2014-03-22 20:24:00,36.8,28.6,30.13,SW,219,0.0,3.0,72,0.00,,,0.03,WeatherCatV1.22B15,2014-03-23 00:24:00,
2014-03-22 20:29:00,36.8,28.6,30.13,SW,220,0.0,0.0,72,0.00,,,0.03,WeatherCatV1.22B15,2014-03-23 00:29:00,
2014-03-22 20:34:00,36.8,29.0,30.13,SW,235,0.0,3.0,73,0.00,,,0.03,WeatherCatV1.22B15,2014-03-23 00:34:00,
2014-03-22 20:39:00,36.8,28.6,30.13,SW,230,0.0,0.0,72,0.00,,,0.03,WeatherCatV1.22B15,2014-03-23 00:39:00,
2014-03-22 20:44:00,36.7,28.9,30.13,SW,232,2.0,3.0,73,0.00,,,0.03,WeatherCatV1.22B15,2014-03-23 00:44:00,
2014-03-22 20:49:00,36.8,29.0,30.14,South,184,1.0,3.0,73,0.00,,,0.03,WeatherCatV1.22B15,2014-03-23 00:49:00,
2014-03-22 20:54:00,36.7,28.9,30.14,SW,234,0.0,4.0,73,0.00,,,0.03,WeatherCatV1.22B15,2014-03-23 00:54:00,
2014-03-22 20:59:00,36.7,28.9,30.14,South,190,0.0,0.0,73,0.00,,,0.03,WeatherCatV1.22B15,2014-03-23 00:59:00,
2014-03-22 21:04:00,36.7,28.9,30.14,South,190,0.0,0.0,73,0.00,,,0.03,WeatherCatV1.22B15,2014-03-23 01:04:00,
2014-03-22 21:09:00,36.6,28.8,30.14,South,190,0.0,0.0,73,0.00,,,0.03,WeatherCatV1.22B15,2014-03-23 01:09:00,
2014-03-22 21:14:00,36.6,28.8,30.14,SW,234,0.0,2.0,73,0.00,,,0.03,WeatherCatV1.22B15,2014-03-23 01:14:00,
2014-03-22 21:19:00,36.7,28.9,30.14,SW,215,0.0,3.0,73,0.00,,,0.03,WeatherCatV1.22B15,2014-03-23 01:19:00,
2014-03-22 21:24:00,36.6,28.8,30.14,SW,216,0.0,0.0,73,0.00,,,0.03,WeatherCatV1.22B15,2014-03-23 01:24:00,
2014-03-22 21:29:00,36.6,28.8,30.14,SW,216,0.0,0.0,73,0.00,,,0.03,WeatherCatV1.22B15,2014-03-23 01:29:00,
2014-03-22 21:34:00,36.5,28.7,30.14,SW,216,0.0,0.0,73,0.00,,,0.03,WeatherCatV1.22B15,2014-03-23 01:34:00,
2014-03-22 21:39:00,36.4,28.6,30.14,SW,216,0.0,0.0,73,0.00,,,0.03,WeatherCatV1.22B15,2014-03-23 01:39:00,
2014-03-22 21:44:00,36.4,28.6,30.14,SW,216,0.0,0.0,73,0.00,,,0.03,WeatherCatV1.22B15,2014-03-23 01:44:00,
2014-03-22 21:49:00,36.4,28.6,30.14,SSW,202,0.0,0.0,73,0.00,,,0.03,WeatherCatV1.22B15,2014-03-23 01:49:00,
2014-03-22 21:54:00,36.3,28.5,30.14,SSW,202,0.0,0.0,73,0.00,,,0.03,WeatherCatV1.22B15,2014-03-23 01:54:00,
2014-03-22 21:59:00,36.3,28.8,30.14,SSW,202,0.0,0.0,74,0.00,,,0.03,WeatherCatV1.22B15,2014-03-23 01:59:00,
2014-03-22 22:04:00,36.4,28.9,30.13,WSW,240,3.0,5.0,74,0.00,,,0.03,WeatherCatV1.22B15,2014-03-23 02:04:00,
2014-03-22 22:09:00,36.6,28.8,30.13,WSW,242,1.0,5.0,73,0.00,,,0.03,WeatherCatV1.22B15,2014-03-23 02:09:00,
2014-03-22 22:14:00,36.8,29.0,30.14,SW,233,5.0,5.0,73,0.00,,,0.03,WeatherCatV1.22B15,2014-03-23 02:14:00,
2014-03-22 22:19:00,36.8,29.0,30.13,WSW,249,4.0,4.0,73,0.00,,,0.03,WeatherCatV1.22B15,2014-03-23 02:19:00,
2014-03-22 22:24:00,36.7,29.2,30.13,WSW,258,3.0,4.0,74,0.00,,,0.03,WeatherCatV1.22B15,2014-03-23 02:24:00,
2014-03-22 22:29:00,36.7,29.2,30.13,WSW,256,3.0,5.0,74,0.00,,,0.03,WeatherCatV1.22B15,2014-03-23 02:29:00,
2014-03-22 22:34:00,36.5,29.3,30.13,SW,226,3.0,4.0,75,0.00,,,0.03,WeatherCatV1.22B15,2014-03-23 02:34:00,
2014-03-22 22:39:00,36.4,29.6,30.13,SW,226,4.0,4.0,76,0.00,,,0.03,WeatherCatV1.22B15,2014-03-23 02:39:00,
2014-03-22 22:44:00,36.3,29.5,30.13,WSW,248,2.0,6.0,76,0.00,,,0.03,WeatherCatV1.22B15,2014-03-23 02:44:00,
2014-03-22 22:49:00,36.2,29.7,30.13,SW,226,2.0,6.0,77,0.00,,,0.03,WeatherCatV1.22B15,2014-03-23 02:49:00,
2014-03-22 22:54:00,36.2,29.7,30.13,WSW,255,2.0,6.0,77,0.00,,,0.03,WeatherCatV1.22B15,2014-03-23 02:54:00,
2014-03-22 22:59:00,36.1,29.6,30.13,WSW,238,2.0,4.0,77,0.00,,,0.03,WeatherCatV1.22B15,2014-03-23 02:59:00,
2014-03-22 23:04:00,36.1,29.9,30.14,SW,222,2.0,6.0,78,0.00,,,0.03,WeatherCatV1.22B15,2014-03-23 03:04:00,
2014-03-22 23:09:00,36.0,29.8,30.14,SW,236,3.0,6.0,78,0.00,,,0.03,WeatherCatV1.22B15,2014-03-23 03:09:00,
2014-03-22 23:14:00,35.9,30.0,30.14,WSW,257,2.0,7.0,79,0.00,,,0.03,WeatherCatV1.22B15,2014-03-23 03:14:00,
2014-03-22 23:19:00,35.7,29.8,30.14,WSW,250,0.0,5.0,79,0.00,,,0.03,WeatherCatV1.22B15,2014-03-23 03:19:00,
2014-03-22 23:24:00,35.4,29.9,30.14,WNW,293,1.0,4.0,80,0.00,,,0.03,WeatherCatV1.22B15,2014-03-23 03:24:00,
2014-03-22 23:29:00,35.1,29.9,30.14,West,263,3.0,9.0,81,0.00,,,0.03,WeatherCatV1.22B15,2014-03-23 03:29:00,
2014-03-22 23:34:00,34.9,30.0,30.15,NW,309,0.0,3.0,82,0.00,,,0.03,WeatherCatV1.22B15,2014-03-23 03:34:00,
2014-03-22 23:39:00,34.7,30.1,30.15,WNW,291,5.0,5.0,83,0.00,,,0.03,WeatherCatV1.22B15,2014-03-23 03:39:00,
2014-03-22 23:44:00,34.5,30.2,30.15,WNW,299,2.0,3.0,84,0.00,,,0.03,WeatherCatV1.22B15,2014-03-23 03:44:00,
2014-03-22 23:49:00,34.4,30.1,30.15,North,350,0.0,2.0,84,0.00,,,0.03,WeatherCatV1.22B15,2014-03-23 03:49:00,
2014-03-22 23:54:00,34.2,29.9,30.15,NW,313,0.0,3.0,84,0.00,,,0.03,WeatherCatV1.22B15,2014-03-23 03:54:00,
2014-03-22 23:59:00,33.7,29.4,30.15,NNW,344,3.0,3.0,84,0.00,,,0.03,WeatherCatV1.22B15,2014-03-23 03:59:00,